sensor_id;sensor_type;location;lat;lon;timestamp;temperature;humidity
41985;DHT22;28319;48.116;10.818;2022-07-29T00:01:49;20.70;95.80
41985;DHT22;28319;48.116;10.818;2022-07-29T00:04:18;20.70;95.90
41985;DHT22;28319;48.116;10.818;2022-07-29T00:06:45;20.70;95.80
41985;DHT22;28319;48.116;10.818;2022-07-29T00:09:12;20.70;95.80
41985;DHT22;28319;48.116;10.818;2022-07-29T00:11:40;20.80;95.70
41985;DHT22;28319;48.116;10.818;2022-07-29T00:14:07;20.70;95.90
41985;DHT22;28319;48.116;10.818;2022-07-29T00:16:36;20.60;96.60
41985;DHT22;28319;48.116;10.818;2022-07-29T00:19:03;20.50;97.00
41985;DHT22;28319;48.116;10.818;2022-07-29T00:21:31;20.50;96.90
41985;DHT22;28319;48.116;10.818;2022-07-29T00:23:58;20.40;96.60
41985;DHT22;28319;48.116;10.818;2022-07-29T00:26:25;20.30;97.10
41985;DHT22;28319;48.116;10.818;2022-07-29T00:28:57;20.20;97.10
41985;DHT22;28319;48.116;10.818;2022-07-29T00:31:24;20.10;97.60
41985;DHT22;28319;48.116;10.818;2022-07-29T00:33:53;20.10;96.90
41985;DHT22;28319;48.116;10.818;2022-07-29T00:36:20;20.10;97.50
41985;DHT22;28319;48.116;10.818;2022-07-29T00:38:46;20.00;97.40
41985;DHT22;28319;48.116;10.818;2022-07-29T00:41:14;20.00;97.30
41985;DHT22;28319;48.116;10.818;2022-07-29T00:43:44;19.90;97.80
41985;DHT22;28319;48.116;10.818;2022-07-29T00:46:11;19.70;97.70
41985;DHT22;28319;48.116;10.818;2022-07-29T00:48:38;19.50;98.10
41985;DHT22;28319;48.116;10.818;2022-07-29T00:51:07;19.60;97.80
41985;DHT22;28319;48.116;10.818;2022-07-29T00:53:35;19.60;97.60
41985;DHT22;28319;48.116;10.818;2022-07-29T00:56:03;19.50;97.60
41985;DHT22;28319;48.116;10.818;2022-07-29T00:58:31;19.50;97.90
41985;DHT22;28319;48.116;10.818;2022-07-29T01:00:58;19.40;98.20
41985;DHT22;28319;48.116;10.818;2022-07-29T01:03:25;19.30;98.40
41985;DHT22;28319;48.116;10.818;2022-07-29T01:05:53;19.20;98.30
41985;DHT22;28319;48.116;10.818;2022-07-29T01:08:23;19.20;98.10
41985;DHT22;28319;48.116;10.818;2022-07-29T01:10:51;19.30;98.30
41985;DHT22;28319;48.116;10.818;2022-07-29T01:13:19;19.30;97.90
41985;DHT22;28319;48.116;10.818;2022-07-29T01:15:59;19.20;97.80
41985;DHT22;28319;48.116;10.818;2022-07-29T01:18:31;19.20;97.90
41985;DHT22;28319;48.116;10.818;2022-07-29T01:21:21;19.30;97.30
41985;DHT22;28319;48.116;10.818;2022-07-29T01:24:18;19.40;97.10
41985;DHT22;28319;48.116;10.818;2022-07-29T01:26:54;19.30;97.30
41985;DHT22;28319;48.116;10.818;2022-07-29T01:29:28;19.20;97.50
41985;DHT22;28319;48.116;10.818;2022-07-29T01:31:59;19.40;96.90
41985;DHT22;28319;48.116;10.818;2022-07-29T01:34:31;19.20;97.40
41985;DHT22;28319;48.116;10.818;2022-07-29T01:37:06;19.20;97.00
41985;DHT22;28319;48.116;10.818;2022-07-29T01:39:37;19.10;97.50
41985;DHT22;28319;48.116;10.818;2022-07-29T01:42:10;19.00;97.50
41985;DHT22;28319;48.116;10.818;2022-07-29T01:44:46;19.00;97.30
41985;DHT22;28319;48.116;10.818;2022-07-29T01:47:19;18.90;97.60
41985;DHT22;28319;48.116;10.818;2022-07-29T01:49:51;18.90;97.80
41985;DHT22;28319;48.116;10.818;2022-07-29T01:52:21;18.80;97.60
41985;DHT22;28319;48.116;10.818;2022-07-29T01:54:53;18.90;97.20
41985;DHT22;28319;48.116;10.818;2022-07-29T01:57:27;18.90;97.70
41985;DHT22;28319;48.116;10.818;2022-07-29T01:59:57;19.00;97.00
41985;DHT22;28319;48.116;10.818;2022-07-29T02:02:26;19.00;97.20
41985;DHT22;28319;48.116;10.818;2022-07-29T02:04:54;19.00;97.60
41985;DHT22;28319;48.116;10.818;2022-07-29T02:07:23;19.00;96.60
41985;DHT22;28319;48.116;10.818;2022-07-29T02:09:52;19.10;96.50
41985;DHT22;28319;48.116;10.818;2022-07-29T02:12:20;19.20;96.20
41985;DHT22;28319;48.116;10.818;2022-07-29T02:14:51;18.60;96.90
41985;DHT22;28319;48.116;10.818;2022-07-29T02:17:22;18.80;97.60
41985;DHT22;28319;48.116;10.818;2022-07-29T02:19:51;18.80;97.90
41985;DHT22;28319;48.116;10.818;2022-07-29T02:22:21;18.80;97.50
41985;DHT22;28319;48.116;10.818;2022-07-29T02:24:50;18.80;97.10
41985;DHT22;28319;48.116;10.818;2022-07-29T02:27:19;18.90;97.10
41985;DHT22;28319;48.116;10.818;2022-07-29T02:29:47;19.00;96.90
41985;DHT22;28319;48.116;10.818;2022-07-29T02:32:16;19.00;97.20
41985;DHT22;28319;48.116;10.818;2022-07-29T02:34:46;19.00;97.00
41985;DHT22;28319;48.116;10.818;2022-07-29T02:37:16;19.00;97.40
41985;DHT22;28319;48.116;10.818;2022-07-29T02:39:45;18.90;97.20
41985;DHT22;28319;48.116;10.818;2022-07-29T02:42:16;19.00;97.10
41985;DHT22;28319;48.116;10.818;2022-07-29T02:44:44;19.00;96.60
41985;DHT22;28319;48.116;10.818;2022-07-29T02:47:16;18.80;97.10
41985;DHT22;28319;48.116;10.818;2022-07-29T02:49:52;18.80;97.30
41985;DHT22;28319;48.116;10.818;2022-07-29T02:52:24;18.70;97.50
41985;DHT22;28319;48.116;10.818;2022-07-29T02:54:55;18.60;97.80
41985;DHT22;28319;48.116;10.818;2022-07-29T02:57:30;18.50;97.90
41985;DHT22;28319;48.116;10.818;2022-07-29T03:00:02;18.60;97.60
41985;DHT22;28319;48.116;10.818;2022-07-29T03:02:33;18.60;97.90
41985;DHT22;28319;48.116;10.818;2022-07-29T03:05:04;18.50;98.10
41985;DHT22;28319;48.116;10.818;2022-07-29T03:07:33;18.50;98.10
41985;DHT22;28319;48.116;10.818;2022-07-29T03:10:02;18.50;97.70
41985;DHT22;28319;48.116;10.818;2022-07-29T03:12:30;18.50;97.70
41985;DHT22;28319;48.116;10.818;2022-07-29T03:14:59;18.50;97.50
41985;DHT22;28319;48.116;10.818;2022-07-29T03:17:27;18.60;97.60
41985;DHT22;28319;48.116;10.818;2022-07-29T03:19:55;18.50;97.50
41985;DHT22;28319;48.116;10.818;2022-07-29T03:22:24;18.40;98.10
41985;DHT22;28319;48.116;10.818;2022-07-29T03:24:51;18.40;98.30
41985;DHT22;28319;48.116;10.818;2022-07-29T03:27:18;18.20;98.50
41985;DHT22;28319;48.116;10.818;2022-07-29T03:29:45;18.20;98.30
41985;DHT22;28319;48.116;10.818;2022-07-29T03:32:12;18.20;98.50
41985;DHT22;28319;48.116;10.818;2022-07-29T03:34:40;18.10;98.10
41985;DHT22;28319;48.116;10.818;2022-07-29T03:37:07;18.10;98.20
41985;DHT22;28319;48.116;10.818;2022-07-29T03:39:40;18.00;98.90
41985;DHT22;28319;48.116;10.818;2022-07-29T03:42:10;17.90;98.80
41985;DHT22;28319;48.116;10.818;2022-07-29T03:44:42;17.80;98.80
41985;DHT22;28319;48.116;10.818;2022-07-29T03:47:11;17.90;98.70
41985;DHT22;28319;48.116;10.818;2022-07-29T03:49:41;17.90;98.50
41985;DHT22;28319;48.116;10.818;2022-07-29T03:52:09;18.00;98.50
41985;DHT22;28319;48.116;10.818;2022-07-29T03:54:38;18.00;98.20
41985;DHT22;28319;48.116;10.818;2022-07-29T03:57:06;18.00;98.10
41985;DHT22;28319;48.116;10.818;2022-07-29T03:59:33;18.10;97.40
41985;DHT22;28319;48.116;10.818;2022-07-29T04:02:02;18.20;98.00
41985;DHT22;28319;48.116;10.818;2022-07-29T04:04:32;18.30;97.60
41985;DHT22;28319;48.116;10.818;2022-07-29T04:07:00;18.30;97.90
41985;DHT22;28319;48.116;10.818;2022-07-29T04:09:28;18.20;97.80
41985;DHT22;28319;48.116;10.818;2022-07-29T04:11:56;18.20;97.70
41985;DHT22;28319;48.116;10.818;2022-07-29T04:14:23;18.20;97.50
41985;DHT22;28319;48.116;10.818;2022-07-29T04:16:50;18.30;97.00
41985;DHT22;28319;48.116;10.818;2022-07-29T04:19:18;18.30;96.80
41985;DHT22;28319;48.116;10.818;2022-07-29T04:21:45;18.40;96.90
41985;DHT22;28319;48.116;10.818;2022-07-29T04:24:12;18.40;96.60
41985;DHT22;28319;48.116;10.818;2022-07-29T04:26:39;18.40;96.70
41985;DHT22;28319;48.116;10.818;2022-07-29T04:29:08;18.40;97.20
41985;DHT22;28319;48.116;10.818;2022-07-29T04:31:35;18.40;97.00
41985;DHT22;28319;48.116;10.818;2022-07-29T04:34:02;18.40;96.70
41985;DHT22;28319;48.116;10.818;2022-07-29T04:36:29;18.40;96.70
41985;DHT22;28319;48.116;10.818;2022-07-29T04:38:56;18.50;96.70
41985;DHT22;28319;48.116;10.818;2022-07-29T04:41:24;18.50;96.40
41985;DHT22;28319;48.116;10.818;2022-07-29T04:43:51;18.50;96.80
41985;DHT22;28319;48.116;10.818;2022-07-29T04:46:20;18.50;96.90
41985;DHT22;28319;48.116;10.818;2022-07-29T04:48:47;18.50;97.50
41985;DHT22;28319;48.116;10.818;2022-07-29T04:51:14;18.40;97.60
41985;DHT22;28319;48.116;10.818;2022-07-29T04:53:41;18.30;98.30
41985;DHT22;28319;48.116;10.818;2022-07-29T04:56:09;18.30;97.40
41985;DHT22;28319;48.116;10.818;2022-07-29T04:58:36;18.40;96.50
41985;DHT22;28319;48.116;10.818;2022-07-29T05:01:03;18.50;96.70
41985;DHT22;28319;48.116;10.818;2022-07-29T05:03:32;18.60;96.60
41985;DHT22;28319;48.116;10.818;2022-07-29T05:05:59;18.60;96.60
41985;DHT22;28319;48.116;10.818;2022-07-29T05:08:26;18.60;96.70
41985;DHT22;28319;48.116;10.818;2022-07-29T05:10:53;18.50;97.90
41985;DHT22;28319;48.116;10.818;2022-07-29T05:13:20;18.60;96.80
41985;DHT22;28319;48.116;10.818;2022-07-29T05:15:49;18.50;97.50
41985;DHT22;28319;48.116;10.818;2022-07-29T05:18:16;18.50;97.50
41985;DHT22;28319;48.116;10.818;2022-07-29T05:20:45;18.50;97.60
41985;DHT22;28319;48.116;10.818;2022-07-29T05:23:12;18.50;98.00
41985;DHT22;28319;48.116;10.818;2022-07-29T05:25:40;18.50;97.00
41985;DHT22;28319;48.116;10.818;2022-07-29T05:28:07;18.60;97.80
41985;DHT22;28319;48.116;10.818;2022-07-29T05:30:34;18.60;96.80
41985;DHT22;28319;48.116;10.818;2022-07-29T05:33:01;18.60;97.40
41985;DHT22;28319;48.116;10.818;2022-07-29T05:35:28;18.60;97.30
41985;DHT22;28319;48.116;10.818;2022-07-29T05:37:57;18.70;96.70
41985;DHT22;28319;48.116;10.818;2022-07-29T05:40:24;18.70;96.70
41985;DHT22;28319;48.116;10.818;2022-07-29T05:42:51;18.70;97.40
41985;DHT22;28319;48.116;10.818;2022-07-29T05:45:18;18.70;96.50
41985;DHT22;28319;48.116;10.818;2022-07-29T05:47:45;18.80;96.90
41985;DHT22;28319;48.116;10.818;2022-07-29T05:50:13;18.80;97.40
41985;DHT22;28319;48.116;10.818;2022-07-29T05:52:39;18.90;97.00
41985;DHT22;28319;48.116;10.818;2022-07-29T05:55:09;18.90;96.70
41985;DHT22;28319;48.116;10.818;2022-07-29T05:57:36;19.00;96.20
41985;DHT22;28319;48.116;10.818;2022-07-29T06:00:04;19.00;96.70
41985;DHT22;28319;48.116;10.818;2022-07-29T06:02:33;19.00;96.60
41985;DHT22;28319;48.116;10.818;2022-07-29T06:05:01;19.10;96.10
41985;DHT22;28319;48.116;10.818;2022-07-29T06:07:28;19.10;96.50
41985;DHT22;28319;48.116;10.818;2022-07-29T06:09:55;19.10;96.90
41985;DHT22;28319;48.116;10.818;2022-07-29T06:12:23;19.10;96.80
41985;DHT22;28319;48.116;10.818;2022-07-29T06:14:50;19.10;97.30
41985;DHT22;28319;48.116;10.818;2022-07-29T06:17:17;19.10;98.00
41985;DHT22;28319;48.116;10.818;2022-07-29T06:19:44;19.20;96.70
41985;DHT22;28319;48.116;10.818;2022-07-29T06:22:11;19.20;96.90
41985;DHT22;28319;48.116;10.818;2022-07-29T06:24:38;19.20;96.40
41985;DHT22;28319;48.116;10.818;2022-07-29T06:27:10;19.30;97.90
41985;DHT22;28319;48.116;10.818;2022-07-29T06:29:39;19.30;97.00
41985;DHT22;28319;48.116;10.818;2022-07-29T06:32:06;19.30;97.10
41985;DHT22;28319;48.116;10.818;2022-07-29T06:34:34;19.40;96.30
41985;DHT22;28319;48.116;10.818;2022-07-29T06:37:06;19.40;97.20
41985;DHT22;28319;48.116;10.818;2022-07-29T06:39:34;19.50;97.30
41985;DHT22;28319;48.116;10.818;2022-07-29T06:42:02;19.50;97.10
41985;DHT22;28319;48.116;10.818;2022-07-29T06:44:29;19.50;97.00
41985;DHT22;28319;48.116;10.818;2022-07-29T06:46:57;19.50;97.20
41985;DHT22;28319;48.116;10.818;2022-07-29T06:49:25;19.60;97.00
41985;DHT22;28319;48.116;10.818;2022-07-29T06:51:53;19.50;97.40
41985;DHT22;28319;48.116;10.818;2022-07-29T06:54:20;19.60;97.30
41985;DHT22;28319;48.116;10.818;2022-07-29T06:56:47;19.60;97.80
41985;DHT22;28319;48.116;10.818;2022-07-29T06:59:14;19.70;97.00
41985;DHT22;28319;48.116;10.818;2022-07-29T07:01:43;19.80;97.00
41985;DHT22;28319;48.116;10.818;2022-07-29T07:04:12;20.00;97.60
41985;DHT22;28319;48.116;10.818;2022-07-29T07:06:39;20.00;96.90
41985;DHT22;28319;48.116;10.818;2022-07-29T07:09:06;20.10;97.00
41985;DHT22;28319;48.116;10.818;2022-07-29T07:11:33;20.10;96.50
41985;DHT22;28319;48.116;10.818;2022-07-29T07:14:02;20.30;96.70
41985;DHT22;28319;48.116;10.818;2022-07-29T07:16:28;20.30;96.60
41985;DHT22;28319;48.116;10.818;2022-07-29T07:18:56;20.40;96.60
41985;DHT22;28319;48.116;10.818;2022-07-29T07:21:24;20.60;96.20
41985;DHT22;28319;48.116;10.818;2022-07-29T07:23:52;20.70;96.10
41985;DHT22;28319;48.116;10.818;2022-07-29T07:26:19;20.80;95.90
41985;DHT22;28319;48.116;10.818;2022-07-29T07:28:46;20.90;95.70
41985;DHT22;28319;48.116;10.818;2022-07-29T07:31:13;20.90;95.80
41985;DHT22;28319;48.116;10.818;2022-07-29T07:33:40;20.90;95.80
41985;DHT22;28319;48.116;10.818;2022-07-29T07:36:07;20.90;95.20
41985;DHT22;28319;48.116;10.818;2022-07-29T07:38:36;20.90;95.40
41985;DHT22;28319;48.116;10.818;2022-07-29T07:41:03;21.00;95.20
41985;DHT22;28319;48.116;10.818;2022-07-29T07:43:30;20.90;95.60
41985;DHT22;28319;48.116;10.818;2022-07-29T07:45:58;21.00;95.20
41985;DHT22;28319;48.116;10.818;2022-07-29T07:48:25;21.00;95.30
41985;DHT22;28319;48.116;10.818;2022-07-29T07:50:52;21.10;95.50
41985;DHT22;28319;48.116;10.818;2022-07-29T07:53:20;21.10;95.10
41985;DHT22;28319;48.116;10.818;2022-07-29T07:55:48;21.20;95.10
41985;DHT22;28319;48.116;10.818;2022-07-29T07:58:15;21.10;95.20
41985;DHT22;28319;48.116;10.818;2022-07-29T08:00:42;21.20;95.70
41985;DHT22;28319;48.116;10.818;2022-07-29T08:03:09;21.20;95.00
41985;DHT22;28319;48.116;10.818;2022-07-29T08:05:38;21.40;94.80
41985;DHT22;28319;48.116;10.818;2022-07-29T08:08:06;21.50;95.30
41985;DHT22;28319;48.116;10.818;2022-07-29T08:10:33;21.50;94.80
41985;DHT22;28319;48.116;10.818;2022-07-29T08:13:19;21.50;95.10
41985;DHT22;28319;48.116;10.818;2022-07-29T08:15:47;21.40;95.40
41985;DHT22;28319;48.116;10.818;2022-07-29T08:18:22;21.40;94.50
41985;DHT22;28319;48.116;10.818;2022-07-29T08:20:50;21.50;95.00
41985;DHT22;28319;48.116;10.818;2022-07-29T08:23:17;21.50;95.20
41985;DHT22;28319;48.116;10.818;2022-07-29T08:25:45;21.40;94.90
41985;DHT22;28319;48.116;10.818;2022-07-29T08:28:12;21.50;94.70
41985;DHT22;28319;48.116;10.818;2022-07-29T08:30:41;21.50;94.70
41985;DHT22;28319;48.116;10.818;2022-07-29T08:33:09;21.60;94.50
41985;DHT22;28319;48.116;10.818;2022-07-29T08:35:36;21.60;94.40
41985;DHT22;28319;48.116;10.818;2022-07-29T08:38:05;21.80;94.30
41985;DHT22;28319;48.116;10.818;2022-07-29T08:40:32;21.90;93.90
41985;DHT22;28319;48.116;10.818;2022-07-29T08:43:04;21.90;93.70
41985;DHT22;28319;48.116;10.818;2022-07-29T08:45:41;22.00;93.80
41985;DHT22;28319;48.116;10.818;2022-07-29T08:48:11;22.00;93.40
41985;DHT22;28319;48.116;10.818;2022-07-29T08:50:39;22.00;93.20
41985;DHT22;28319;48.116;10.818;2022-07-29T08:53:10;22.00;92.90
41985;DHT22;28319;48.116;10.818;2022-07-29T08:55:39;22.10;93.50
41985;DHT22;28319;48.116;10.818;2022-07-29T08:58:07;22.10;93.20
41985;DHT22;28319;48.116;10.818;2022-07-29T09:00:35;22.20;93.60
41985;DHT22;28319;48.116;10.818;2022-07-29T09:03:05;22.30;93.50
41985;DHT22;28319;48.116;10.818;2022-07-29T09:05:33;22.50;92.70
41985;DHT22;28319;48.116;10.818;2022-07-29T09:08:01;22.60;93.40
41985;DHT22;28319;48.116;10.818;2022-07-29T09:10:28;22.60;92.70
41985;DHT22;28319;48.116;10.818;2022-07-29T09:12:55;22.60;92.60
41985;DHT22;28319;48.116;10.818;2022-07-29T09:15:24;22.70;93.40
41985;DHT22;28319;48.116;10.818;2022-07-29T09:17:51;22.80;93.00
41985;DHT22;28319;48.116;10.818;2022-07-29T09:20:21;22.70;92.70
41985;DHT22;28319;48.116;10.818;2022-07-29T09:22:48;22.80;92.90
41985;DHT22;28319;48.116;10.818;2022-07-29T09:25:32;22.90;93.00
41985;DHT22;28319;48.116;10.818;2022-07-29T09:28:06;22.90;93.10
41985;DHT22;28319;48.116;10.818;2022-07-29T09:30:34;23.00;92.70
41985;DHT22;28319;48.116;10.818;2022-07-29T09:33:02;23.00;92.70
41985;DHT22;28319;48.116;10.818;2022-07-29T09:35:31;23.10;93.00
41985;DHT22;28319;48.116;10.818;2022-07-29T09:38:10;23.10;92.70
41985;DHT22;28319;48.116;10.818;2022-07-29T09:40:37;23.20;92.30
41985;DHT22;28319;48.116;10.818;2022-07-29T09:43:10;23.30;92.20
41985;DHT22;28319;48.116;10.818;2022-07-29T09:45:38;23.30;91.90
41985;DHT22;28319;48.116;10.818;2022-07-29T09:48:14;23.30;92.20
41985;DHT22;28319;48.116;10.818;2022-07-29T09:50:44;23.60;92.20
41985;DHT22;28319;48.116;10.818;2022-07-29T09:53:12;23.70;91.50
41985;DHT22;28319;48.116;10.818;2022-07-29T09:55:55;23.80;90.90
41985;DHT22;28319;48.116;10.818;2022-07-29T09:58:23;23.70;90.70
41985;DHT22;28319;48.116;10.818;2022-07-29T10:00:51;23.60;90.00
41985;DHT22;28319;48.116;10.818;2022-07-29T10:03:19;23.70;90.40
41985;DHT22;28319;48.116;10.818;2022-07-29T10:06:05;23.90;90.50
41985;DHT22;28319;48.116;10.818;2022-07-29T10:08:32;24.10;90.30
41985;DHT22;28319;48.116;10.818;2022-07-29T10:11:09;24.30;89.90
41985;DHT22;28319;48.116;10.818;2022-07-29T10:13:36;24.60;90.00
41985;DHT22;28319;48.116;10.818;2022-07-29T10:16:04;24.70;90.20
41985;DHT22;28319;48.116;10.818;2022-07-29T10:18:32;24.80;90.20
41985;DHT22;28319;48.116;10.818;2022-07-29T10:21:02;24.90;88.80
41985;DHT22;28319;48.116;10.818;2022-07-29T10:23:30;25.20;88.60
41985;DHT22;28319;48.116;10.818;2022-07-29T10:25:57;25.20;86.50
41985;DHT22;28319;48.116;10.818;2022-07-29T10:28:24;25.10;86.90
41985;DHT22;28319;48.116;10.818;2022-07-29T10:30:57;25.10;88.20
41985;DHT22;28319;48.116;10.818;2022-07-29T10:33:41;25.10;88.80
41985;DHT22;28319;48.116;10.818;2022-07-29T10:36:24;24.90;89.00
41985;DHT22;28319;48.116;10.818;2022-07-29T10:39:00;24.80;87.40
41985;DHT22;28319;48.116;10.818;2022-07-29T10:41:39;24.80;86.10
41985;DHT22;28319;48.116;10.818;2022-07-29T10:44:15;24.70;86.20
41985;DHT22;28319;48.116;10.818;2022-07-29T10:46:43;24.80;88.70
41985;DHT22;28319;48.116;10.818;2022-07-29T10:49:12;25.20;86.90
41985;DHT22;28319;48.116;10.818;2022-07-29T10:52:03;25.40;86.80
41985;DHT22;28319;48.116;10.818;2022-07-29T10:54:41;25.30;85.30
41985;DHT22;28319;48.116;10.818;2022-07-29T10:57:15;25.40;86.70
41985;DHT22;28319;48.116;10.818;2022-07-29T10:59:46;25.40;87.00
41985;DHT22;28319;48.116;10.818;2022-07-29T11:02:44;25.30;87.00
41985;DHT22;28319;48.116;10.818;2022-07-29T11:05:14;25.30;86.10
41985;DHT22;28319;48.116;10.818;2022-07-29T11:08:18;25.20;86.40
41985;DHT22;28319;48.116;10.818;2022-07-29T11:10:49;25.20;85.60
41985;DHT22;28319;48.116;10.818;2022-07-29T11:13:47;25.20;84.70
41985;DHT22;28319;48.116;10.818;2022-07-29T11:16:16;25.10;85.00
41985;DHT22;28319;48.116;10.818;2022-07-29T11:19:21;25.50;84.00
41985;DHT22;28319;48.116;10.818;2022-07-29T11:21:49;25.60;81.20
41985;DHT22;28319;48.116;10.818;2022-07-29T11:24:28;25.90;81.60
41985;DHT22;28319;48.116;10.818;2022-07-29T11:27:13;26.20;80.80
41985;DHT22;28319;48.116;10.818;2022-07-29T11:29:52;26.30;79.80
41985;DHT22;28319;48.116;10.818;2022-07-29T11:32:20;26.50;79.80
41985;DHT22;28319;48.116;10.818;2022-07-29T11:34:48;26.60;80.10
41985;DHT22;28319;48.116;10.818;2022-07-29T11:37:25;26.40;79.40
41985;DHT22;28319;48.116;10.818;2022-07-29T11:40:15;26.30;80.60
41985;DHT22;28319;48.116;10.818;2022-07-29T11:42:46;26.40;80.30
41985;DHT22;28319;48.116;10.818;2022-07-29T11:45:18;26.20;79.90
41985;DHT22;28319;48.116;10.818;2022-07-29T11:47:50;26.00;81.40
41985;DHT22;28319;48.116;10.818;2022-07-29T11:50:31;25.80;81.80
41985;DHT22;28319;48.116;10.818;2022-07-29T11:53:00;25.80;83.10
41985;DHT22;28319;48.116;10.818;2022-07-29T11:55:29;25.70;81.80
41985;DHT22;28319;48.116;10.818;2022-07-29T11:57:58;25.60;82.40
41985;DHT22;28319;48.116;10.818;2022-07-29T12:00:28;25.60;83.20
41985;DHT22;28319;48.116;10.818;2022-07-29T12:02:56;25.60;83.70
41985;DHT22;28319;48.116;10.818;2022-07-29T12:05:35;25.60;83.20
41985;DHT22;28319;48.116;10.818;2022-07-29T12:08:14;25.50;84.40
41985;DHT22;28319;48.116;10.818;2022-07-29T12:10:43;25.50;84.50
41985;DHT22;28319;48.116;10.818;2022-07-29T12:13:12;25.40;84.50
41985;DHT22;28319;48.116;10.818;2022-07-29T12:15:40;25.30;85.20
41985;DHT22;28319;48.116;10.818;2022-07-29T12:18:11;25.30;85.60
41985;DHT22;28319;48.116;10.818;2022-07-29T12:20:39;25.20;84.90
41985;DHT22;28319;48.116;10.818;2022-07-29T12:23:07;25.20;85.30
41985;DHT22;28319;48.116;10.818;2022-07-29T12:25:37;25.10;86.00
41985;DHT22;28319;48.116;10.818;2022-07-29T12:28:09;25.20;86.90
41985;DHT22;28319;48.116;10.818;2022-07-29T12:30:40;25.20;85.80
41985;DHT22;28319;48.116;10.818;2022-07-29T12:33:12;25.30;86.20
41985;DHT22;28319;48.116;10.818;2022-07-29T12:35:39;25.30;86.50
41985;DHT22;28319;48.116;10.818;2022-07-29T12:38:08;25.20;88.50
41985;DHT22;28319;48.116;10.818;2022-07-29T12:40:36;25.10;87.10
41985;DHT22;28319;48.116;10.818;2022-07-29T12:43:20;24.90;86.90
41985;DHT22;28319;48.116;10.818;2022-07-29T12:45:48;24.70;88.20
41985;DHT22;28319;48.116;10.818;2022-07-29T12:48:17;24.50;88.30
41985;DHT22;28319;48.116;10.818;2022-07-29T12:50:57;24.40;89.40
41985;DHT22;28319;48.116;10.818;2022-07-29T12:53:25;24.40;89.50
41985;DHT22;28319;48.116;10.818;2022-07-29T12:55:54;24.30;90.00
41985;DHT22;28319;48.116;10.818;2022-07-29T12:58:34;24.20;90.20
41985;DHT22;28319;48.116;10.818;2022-07-29T13:01:10;24.00;90.50
41985;DHT22;28319;48.116;10.818;2022-07-29T13:03:50;23.90;90.50
41985;DHT22;28319;48.116;10.818;2022-07-29T13:06:31;24.00;90.50
41985;DHT22;28319;48.116;10.818;2022-07-29T13:09:09;23.90;90.60
41985;DHT22;28319;48.116;10.818;2022-07-29T13:11:38;23.70;90.80
41985;DHT22;28319;48.116;10.818;2022-07-29T13:14:08;23.90;90.80
41985;DHT22;28319;48.116;10.818;2022-07-29T13:16:35;23.90;90.90
41985;DHT22;28319;48.116;10.818;2022-07-29T13:19:07;23.90;91.20
41985;DHT22;28319;48.116;10.818;2022-07-29T13:21:36;23.80;91.00
41985;DHT22;28319;48.116;10.818;2022-07-29T13:24:05;23.70;91.10
41985;DHT22;28319;48.116;10.818;2022-07-29T13:26:32;23.60;91.20
41985;DHT22;28319;48.116;10.818;2022-07-29T13:29:00;23.60;91.40
41985;DHT22;28319;48.116;10.818;2022-07-29T13:31:28;23.60;91.40
41985;DHT22;28319;48.116;10.818;2022-07-29T13:33:56;23.50;91.50
41985;DHT22;28319;48.116;10.818;2022-07-29T13:36:23;23.30;91.60
41985;DHT22;28319;48.116;10.818;2022-07-29T13:38:50;23.30;91.80
41985;DHT22;28319;48.116;10.818;2022-07-29T13:41:17;23.30;91.80
41985;DHT22;28319;48.116;10.818;2022-07-29T13:43:44;23.30;91.50
41985;DHT22;28319;48.116;10.818;2022-07-29T13:46:12;23.20;91.40
41985;DHT22;28319;48.116;10.818;2022-07-29T13:48:40;23.30;91.40
41985;DHT22;28319;48.116;10.818;2022-07-29T13:51:07;23.30;91.50
41985;DHT22;28319;48.116;10.818;2022-07-29T13:53:35;23.40;91.50
41985;DHT22;28319;48.116;10.818;2022-07-29T13:56:02;23.50;91.50
41985;DHT22;28319;48.116;10.818;2022-07-29T13:58:31;23.70;91.20
41985;DHT22;28319;48.116;10.818;2022-07-29T14:00:59;23.60;90.80
41985;DHT22;28319;48.116;10.818;2022-07-29T14:03:26;23.60;90.70
41985;DHT22;28319;48.116;10.818;2022-07-29T14:05:54;23.60;90.70
41985;DHT22;28319;48.116;10.818;2022-07-29T14:08:22;23.60;90.70
41985;DHT22;28319;48.116;10.818;2022-07-29T14:10:49;23.70;90.70
41985;DHT22;28319;48.116;10.818;2022-07-29T14:13:16;23.90;90.60
41985;DHT22;28319;48.116;10.818;2022-07-29T14:15:44;24.10;90.10
41985;DHT22;28319;48.116;10.818;2022-07-29T14:18:11;24.20;89.30
41985;DHT22;28319;48.116;10.818;2022-07-29T14:20:38;24.50;88.90
41985;DHT22;28319;48.116;10.818;2022-07-29T14:23:07;24.90;88.20
41985;DHT22;28319;48.116;10.818;2022-07-29T14:25:34;25.20;87.80
41985;DHT22;28319;48.116;10.818;2022-07-29T14:28:01;25.50;86.80
41985;DHT22;28319;48.116;10.818;2022-07-29T14:30:29;25.40;86.50
41985;DHT22;28319;48.116;10.818;2022-07-29T14:32:56;25.30;86.70
41985;DHT22;28319;48.116;10.818;2022-07-29T14:35:23;25.20;86.70
41985;DHT22;28319;48.116;10.818;2022-07-29T14:37:50;25.00;86.20
41985;DHT22;28319;48.116;10.818;2022-07-29T14:40:19;24.90;86.20
41985;DHT22;28319;48.116;10.818;2022-07-29T14:42:46;24.90;86.30
41985;DHT22;28319;48.116;10.818;2022-07-29T14:45:13;24.90;86.30
41985;DHT22;28319;48.116;10.818;2022-07-29T14:47:40;24.90;85.70
41985;DHT22;28319;48.116;10.818;2022-07-29T14:50:09;24.70;86.30
41985;DHT22;28319;48.116;10.818;2022-07-29T14:52:36;24.70;87.10
41985;DHT22;28319;48.116;10.818;2022-07-29T14:55:04;24.70;87.10
41985;DHT22;28319;48.116;10.818;2022-07-29T14:57:33;24.60;87.30
41985;DHT22;28319;48.116;10.818;2022-07-29T15:00:00;24.50;87.40
41985;DHT22;28319;48.116;10.818;2022-07-29T15:02:28;24.50;87.60
41985;DHT22;28319;48.116;10.818;2022-07-29T15:04:55;24.60;87.60
41985;DHT22;28319;48.116;10.818;2022-07-29T15:07:22;24.60;86.90
41985;DHT22;28319;48.116;10.818;2022-07-29T15:09:49;24.60;87.10
41985;DHT22;28319;48.116;10.818;2022-07-29T15:12:17;24.60;86.90
41985;DHT22;28319;48.116;10.818;2022-07-29T15:14:46;24.80;87.60
41985;DHT22;28319;48.116;10.818;2022-07-29T15:17:13;25.00;87.10
41985;DHT22;28319;48.116;10.818;2022-07-29T15:19:40;25.10;85.80
41985;DHT22;28319;48.116;10.818;2022-07-29T15:22:07;25.00;85.70
41985;DHT22;28319;48.116;10.818;2022-07-29T15:24:34;24.90;85.50
41985;DHT22;28319;48.116;10.818;2022-07-29T15:27:02;24.80;85.30
41985;DHT22;28319;48.116;10.818;2022-07-29T15:29:29;24.70;85.80
41985;DHT22;28319;48.116;10.818;2022-07-29T15:31:58;24.70;86.10